LDA9134 LIPQ-LEBL
Flight info
| Callsign | LDA9134 |
|---|---|
| Flight time | N/A |
| Altitude | 33000 |
| Route | CHI DCT BETMU DCT KALIK DCT GEN DCT GEKBA DCT VAMTU DCT KOLON DCT GANGU DCT PADKO DCT DIVKO DCT NILDU N975 BISBA |
| Aircraft | A320/M-SDE3FGHIRWY/LB1 |
Departure
| Time | 2026-04-25 12:23 |
|---|---|
| Airport | Trieste Airport (LIPQ) |
Arrival
| Time | N/A |
|---|---|
| Airport | Josep Tarradellas Barcelona-El Prat Airport (LEBL) |
| Time | Latitude | Longitude | Altitude | Speed | Heading |
|---|---|---|---|---|---|
| 2026-04-25 12:22 | 45.81513 | 13.36525 | 2898 ft | 244 kts | 211° |
| 2026-04-25 12:23 | 45.79968 | 13.35334 | 3511 ft | 258 kts | 208° |
| 2026-04-25 12:23 | 45.78362 | 13.34138 | 4344 ft | 262 kts | 208° |
| 2026-04-25 12:23 | 45.76734 | 13.32928 | 5237 ft | 265 kts | 209° |
| 2026-04-25 12:23 | 45.75087 | 13.31698 | 6080 ft | 268 kts | 209° |
| 2026-04-25 12:24 | 45.73421 | 13.30450 | 6901 ft | 272 kts | 210° |
| 2026-04-25 12:24 | 45.71760 | 13.29198 | 7638 ft | 276 kts | 210° |
| 2026-04-25 12:24 | 45.70208 | 13.27575 | 8389 ft | 278 kts | 227° |
| 2026-04-25 12:24 | 45.68902 | 13.25519 | 9129 ft | 282 kts | 230° |
| 2026-04-25 12:25 | 45.67594 | 13.23409 | 9899 ft | 285 kts | 230° |
| 2026-04-25 12:25 | 45.66258 | 13.21260 | 10380 ft | 298 kts | 230° |
| 2026-04-25 12:25 | 45.64826 | 13.18960 | 10556 ft | 321 kts | 230° |
| 2026-04-25 12:25 | 45.63311 | 13.16534 | 11020 ft | 331 kts | 230° |
| 2026-04-25 12:26 | 45.61767 | 13.14068 | 11644 ft | 335 kts | 230° |
| 2026-04-25 12:26 | 45.60206 | 13.11578 | 12300 ft | 338 kts | 230° |
| 2026-04-25 12:26 | 45.58631 | 13.09071 | 12963 ft | 341 kts | 230° |
| 2026-04-25 12:26 | 45.57038 | 13.06536 | 13631 ft | 344 kts | 230° |
| 2026-04-25 12:27 | 45.55432 | 13.03978 | 14238 ft | 347 kts | 230° |
| 2026-04-25 12:27 | 45.53813 | 13.01403 | 14837 ft | 350 kts | 230° |
| 2026-04-25 12:27 | 45.52185 | 12.98813 | 15428 ft | 352 kts | 230° |
| 2026-04-25 12:27 | 45.50542 | 12.96208 | 16020 ft | 354 kts | 230° |
| 2026-04-25 12:28 | 45.48890 | 12.93595 | 16607 ft | 356 kts | 230° |
| 2026-04-25 12:28 | 45.47227 | 12.90968 | 17204 ft | 358 kts | 230° |
| 2026-04-25 12:28 | 45.45554 | 12.88323 | 17806 ft | 360 kts | 230° |
| 2026-04-25 12:28 | 45.43875 | 12.85663 | 18387 ft | 362 kts | 230° |
| 2026-04-25 12:29 | 45.42183 | 12.82982 | 18897 ft | 365 kts | 230° |
| 2026-04-25 12:29 | 45.40481 | 12.80292 | 19452 ft | 367 kts | 230° |
| 2026-04-25 12:29 | 45.38764 | 12.77584 | 19994 ft | 369 kts | 230° |
| 2026-04-25 12:29 | 45.37062 | 12.74903 | 20547 ft | 371 kts | 230° |
| 2026-04-25 12:30 | 45.35323 | 12.72167 | 21080 ft | 373 kts | 230° |
| 2026-04-25 12:30 | 45.33578 | 12.69424 | 21612 ft | 375 kts | 230° |
| 2026-04-25 12:30 | 45.31822 | 12.66668 | 22129 ft | 377 kts | 229° |
| 2026-04-25 12:30 | 45.30055 | 12.63898 | 22650 ft | 379 kts | 229° |
| 2026-04-25 12:31 | 45.28278 | 12.61110 | 23165 ft | 381 kts | 229° |
| 2026-04-25 12:31 | 45.26489 | 12.58308 | 23643 ft | 384 kts | 229° |
| 2026-04-25 12:31 | 45.24685 | 12.55488 | 24034 ft | 387 kts | 229° |
| 2026-04-25 12:31 | 45.22870 | 12.52657 | 24423 ft | 389 kts | 229° |
| 2026-04-25 12:32 | 45.21042 | 12.49806 | 24804 ft | 392 kts | 229° |
| 2026-04-25 12:32 | 45.19202 | 12.46936 | 25183 ft | 394 kts | 229° |
| 2026-04-25 12:32 | 45.17352 | 12.44051 | 25552 ft | 397 kts | 229° |
| 2026-04-25 12:32 | 45.15488 | 12.41146 | 25917 ft | 399 kts | 229° |
| 2026-04-25 12:33 | 45.13613 | 12.38232 | 26279 ft | 401 kts | 229° |
| 2026-04-25 12:33 | 45.11728 | 12.35304 | 26658 ft | 403 kts | 229° |
| 2026-04-25 12:33 | 45.09838 | 12.32369 | 27003 ft | 405 kts | 229° |
| 2026-04-25 12:33 | 45.08017 | 12.29310 | 27301 ft | 407 kts | 236° |
| 2026-04-25 12:34 | 45.06564 | 12.25868 | 27625 ft | 409 kts | 245° |
| 2026-04-25 12:34 | 45.05504 | 12.22133 | 27957 ft | 410 kts | 250° |
| 2026-04-25 12:34 | 45.04506 | 12.18341 | 28294 ft | 413 kts | 250° |
| 2026-04-25 12:34 | 45.03840 | 12.15821 | 28514 ft | 414 kts | 250° |
| 2026-04-25 12:35 | 45.02477 | 12.10693 | 28959 ft | 418 kts | 250° |
| 2026-04-25 12:35 | 45.01448 | 12.06845 | 29287 ft | 420 kts | 250° |
| 2026-04-25 12:35 | 45.00410 | 12.02975 | 29601 ft | 422 kts | 250° |
| 2026-04-25 12:35 | 44.99367 | 11.99085 | 29939 ft | 424 kts | 250° |
| 2026-04-25 12:36 | 44.98332 | 11.95224 | 30237 ft | 426 kts | 250° |
| 2026-04-25 12:36 | 44.97281 | 11.91314 | 30614 ft | 426 kts | 250° |
| 2026-04-25 12:36 | 44.96231 | 11.87417 | 31035 ft | 424 kts | 250° |
| 2026-04-25 12:36 | 44.95183 | 11.83534 | 31410 ft | 423 kts | 250° |
| 2026-04-25 12:37 | 44.94136 | 11.79652 | 31790 ft | 423 kts | 250° |
| 2026-04-25 12:37 | 44.93089 | 11.75771 | 32187 ft | 422 kts | 250° |
| 2026-04-25 12:37 | 44.92045 | 11.71903 | 32586 ft | 421 kts | 249° |
| 2026-04-25 12:37 | 44.91002 | 11.68047 | 32964 ft | 421 kts | 249° |
| 2026-04-25 12:38 | 44.89957 | 11.64192 | 33060 ft | 419 kts | 249° |
| 2026-04-25 12:38 | 44.87872 | 11.56550 | 33072 ft | 417 kts | 249° |
| 2026-04-25 12:39 | 44.85787 | 11.48930 | 33073 ft | 416 kts | 249° |
| 2026-04-25 12:39 | 44.83718 | 11.41378 | 33069 ft | 415 kts | 249° |
| 2026-04-25 12:40 | 44.81632 | 11.33794 | 33056 ft | 415 kts | 249° |
| 2026-04-25 12:40 | 44.79534 | 11.26196 | 33055 ft | 417 kts | 249° |
| 2026-04-25 12:41 | 44.77427 | 11.18592 | 33072 ft | 417 kts | 249° |
| 2026-04-25 12:41 | 44.75322 | 11.10990 | 33077 ft | 417 kts | 249° |
| 2026-04-25 12:42 | 44.73209 | 11.03393 | 33075 ft | 417 kts | 249° |
| 2026-04-25 12:42 | 44.71089 | 10.95818 | 33076 ft | 416 kts | 249° |
| 2026-04-25 12:43 | 44.68977 | 10.88282 | 33072 ft | 417 kts | 249° |
| 2026-04-25 12:43 | 44.66148 | 10.76747 | 33057 ft | 417 kts | 254° |
| 2026-04-25 12:44 | 44.64543 | 10.68911 | 33070 ft | 418 kts | 254° |
| 2026-04-25 12:45 | 44.62112 | 10.57149 | 33068 ft | 418 kts | 254° |
| 2026-04-25 12:45 | 44.59666 | 10.45385 | 33082 ft | 418 kts | 254° |
| 2026-04-25 12:46 | 44.58039 | 10.37609 | 33084 ft | 418 kts | 254° |
| 2026-04-25 12:46 | 44.56393 | 10.29790 | 33077 ft | 418 kts | 253° |
| 2026-04-25 12:47 | 44.54745 | 10.21973 | 33074 ft | 418 kts | 253° |
| 2026-04-25 12:47 | 44.53096 | 10.14163 | 33081 ft | 418 kts | 253° |
| 2026-04-25 12:48 | 44.51442 | 10.06357 | 33079 ft | 418 kts | 253° |
| 2026-04-25 12:48 | 44.49774 | 9.98548 | 33074 ft | 418 kts | 253° |
| 2026-04-25 12:49 | 44.48100 | 9.90741 | 33079 ft | 418 kts | 254° |
| 2026-04-25 12:49 | 44.46727 | 9.82838 | 33077 ft | 418 kts | 264° |
| 2026-04-25 12:50 | 44.46286 | 9.74730 | 33081 ft | 418 kts | 265° |
| 2026-04-25 12:50 | 44.45843 | 9.66625 | 33077 ft | 417 kts | 265° |
| 2026-04-25 12:51 | 44.45385 | 9.58529 | 33080 ft | 417 kts | 265° |
| 2026-04-25 12:51 | 44.44926 | 9.50433 | 33086 ft | 417 kts | 265° |
| 2026-04-25 12:52 | 44.44466 | 9.42342 | 33085 ft | 417 kts | 265° |
| 2026-04-25 12:52 | 44.43999 | 9.34245 | 33100 ft | 417 kts | 265° |
| 2026-04-25 12:53 | 44.43522 | 9.26159 | 33104 ft | 417 kts | 265° |
| 2026-04-25 12:53 | 44.43039 | 9.18072 | 33109 ft | 417 kts | 265° |
| 2026-04-25 12:54 | 44.42550 | 9.09995 | 33107 ft | 417 kts | 265° |
| 2026-04-25 12:54 | 44.41872 | 9.01945 | 33121 ft | 417 kts | 261° |
| 2026-04-25 12:55 | 44.41086 | 8.95300 | 33123 ft | 417 kts | 260° |
| 2026-04-25 12:55 | 44.39925 | 8.85971 | 33125 ft | 416 kts | 261° |
| 2026-04-25 12:56 | 44.38983 | 8.77989 | 33129 ft | 416 kts | 261° |
| 2026-04-25 12:56 | 44.38069 | 8.69990 | 33124 ft | 416 kts | 261° |
| 2026-04-25 12:57 | 44.37161 | 8.62057 | 33122 ft | 416 kts | 261° |
| 2026-04-25 12:57 | 44.36234 | 8.54087 | 33119 ft | 415 kts | 261° |
| 2026-04-25 12:58 | 44.35298 | 8.46135 | 33107 ft | 415 kts | 261° |
| 2026-04-25 12:58 | 44.34352 | 8.38188 | 33094 ft | 414 kts | 261° |
| 2026-04-25 12:59 | 44.33407 | 8.30247 | 33081 ft | 414 kts | 261° |
| 2026-04-25 12:59 | 44.32462 | 8.22299 | 33074 ft | 415 kts | 261° |
| 2026-04-25 13:00 | 44.31823 | 8.16980 | 33052 ft | 415 kts | 261° |
| 2026-04-25 13:00 | 44.30532 | 8.06382 | 33060 ft | 417 kts | 261° |
| 2026-04-25 13:01 | 44.29559 | 7.98400 | 33067 ft | 417 kts | 261° |
| 2026-04-25 13:01 | 44.28578 | 7.90417 | 33066 ft | 417 kts | 261° |
| 2026-04-25 13:02 | 44.27419 | 7.82486 | 33060 ft | 418 kts | 252° |
| 2026-04-25 13:02 | 44.24645 | 7.75382 | 33062 ft | 420 kts | 232° |
| 2026-04-25 13:03 | 44.20412 | 7.69743 | 33049 ft | 422 kts | 223° |
| 2026-04-25 13:03 | 44.16004 | 7.64326 | 33056 ft | 422 kts | 223° |
| 2026-04-25 13:04 | 44.11999 | 7.58449 | 33055 ft | 422 kts | 230° |
| 2026-04-25 13:04 | 44.08155 | 7.52283 | 33063 ft | 422 kts | 230° |
| 2026-04-25 13:05 | 44.04294 | 7.46121 | 33077 ft | 423 kts | 230° |
| 2026-04-25 13:05 | 44.00430 | 7.39957 | 33078 ft | 422 kts | 230° |
| 2026-04-25 13:06 | 43.96568 | 7.33803 | 33078 ft | 423 kts | 230° |
| 2026-04-25 13:06 | 43.92693 | 7.27647 | 33080 ft | 424 kts | 230° |
| 2026-04-25 13:07 | 43.88807 | 7.21497 | 33091 ft | 424 kts | 230° |
| 2026-04-25 13:07 | 43.84916 | 7.15354 | 33094 ft | 424 kts | 230° |
| 2026-04-25 13:08 | 43.81681 | 7.10248 | 33097 ft | 424 kts | 230° |
| 2026-04-25 13:08 | 43.77787 | 7.04110 | 33094 ft | 425 kts | 230° |
| 2026-04-25 13:09 | 43.73884 | 6.97976 | 33097 ft | 424 kts | 232° |
| 2026-04-25 13:09 | 43.70911 | 6.90997 | 33093 ft | 422 kts | 249° |
| 2026-04-25 13:10 | 43.68720 | 6.83475 | 33081 ft | 422 kts | 248° |
| 2026-04-25 13:10 | 43.66506 | 6.75971 | 33095 ft | 421 kts | 249° |
| 2026-04-25 13:11 | 43.64291 | 6.68500 | 33084 ft | 420 kts | 249° |
| 2026-04-25 13:11 | 43.62067 | 6.61034 | 33076 ft | 421 kts | 248° |
| 2026-04-25 13:12 | 43.59836 | 6.53565 | 33061 ft | 421 kts | 248° |
| 2026-04-25 13:12 | 43.57986 | 6.47349 | 33054 ft | 422 kts | 249° |
| 2026-04-25 13:13 | 43.55378 | 6.38605 | 33054 ft | 422 kts | 248° |
| 2026-04-25 13:13 | 43.53139 | 6.31122 | 33053 ft | 422 kts | 248° |
| 2026-04-25 13:14 | 43.50890 | 6.23648 | 33058 ft | 422 kts | 248° |
| 2026-04-25 13:14 | 43.48629 | 6.16178 | 33060 ft | 422 kts | 248° |
| 2026-04-25 13:15 | 43.46363 | 6.08717 | 33050 ft | 422 kts | 249° |
| 2026-04-25 13:15 | 43.44101 | 6.01266 | 33059 ft | 422 kts | 248° |
| 2026-04-25 13:16 | 43.41837 | 5.93822 | 33071 ft | 422 kts | 248° |
| 2026-04-25 13:16 | 43.39578 | 5.86441 | 33086 ft | 421 kts | 249° |
| 2026-04-25 13:17 | 43.37310 | 5.79023 | 33085 ft | 421 kts | 249° |
| 2026-04-25 13:17 | 43.35041 | 5.71616 | 33093 ft | 420 kts | 247° |
| 2026-04-25 13:18 | 43.32760 | 5.64219 | 33089 ft | 420 kts | 248° |
| 2026-04-25 13:18 | 43.30474 | 5.56828 | 33093 ft | 420 kts | 248° |
| 2026-04-25 13:19 | 43.28180 | 5.49438 | 33088 ft | 421 kts | 248° |
| 2026-04-25 13:19 | 43.26273 | 5.43290 | 33082 ft | 422 kts | 248° |
| 2026-04-25 13:20 | 43.23575 | 5.34628 | 33082 ft | 423 kts | 248° |
| 2026-04-25 13:20 | 43.21258 | 5.27218 | 33085 ft | 423 kts | 248° |
| 2026-04-25 13:21 | 43.18941 | 5.19806 | 33091 ft | 423 kts | 247° |
| 2026-04-25 13:21 | 43.16618 | 5.12401 | 33096 ft | 423 kts | 247° |
| 2026-04-25 13:22 | 43.14299 | 5.05057 | 33103 ft | 423 kts | 247° |
| 2026-04-25 13:23 | 43.10791 | 4.93971 | 33105 ft | 423 kts | 247° |
| 2026-04-25 13:23 | 43.08442 | 4.86573 | 33107 ft | 423 kts | 247° |
| 2026-04-25 13:24 | 43.05898 | 4.79317 | 33098 ft | 424 kts | 238° |
| 2026-04-25 13:24 | 43.04139 | 4.76119 | 32845 ft | 418 kts | 229° |
| 2026-04-25 13:24 | 43.02067 | 4.73383 | 32582 ft | 411 kts | 222° |
| 2026-04-25 13:24 | 42.99922 | 4.70815 | 32324 ft | 408 kts | 223° |
| 2026-04-25 13:25 | 42.97801 | 4.68260 | 32068 ft | 406 kts | 223° |
| 2026-04-25 13:25 | 42.95688 | 4.65705 | 31816 ft | 405 kts | 223° |
| 2026-04-25 13:25 | 42.93585 | 4.63162 | 31559 ft | 403 kts | 223° |
| 2026-04-25 13:25 | 42.91488 | 4.60627 | 31291 ft | 402 kts | 223° |
| 2026-04-25 13:26 | 42.89395 | 4.58106 | 31056 ft | 401 kts | 223° |
| 2026-04-25 13:26 | 42.87304 | 4.55590 | 30813 ft | 401 kts | 223° |
| 2026-04-25 13:26 | 42.85219 | 4.53079 | 30565 ft | 400 kts | 223° |
| 2026-04-25 13:26 | 42.83137 | 4.50579 | 30323 ft | 399 kts | 223° |
| 2026-04-25 13:27 | 42.81057 | 4.48082 | 30063 ft | 397 kts | 223° |
| 2026-04-25 13:27 | 42.78987 | 4.45592 | 29782 ft | 396 kts | 223° |
| 2026-04-25 13:27 | 42.76923 | 4.43116 | 29498 ft | 394 kts | 223° |
| 2026-04-25 13:27 | 42.74866 | 4.40654 | 29220 ft | 393 kts | 223° |
| 2026-04-25 13:28 | 42.72819 | 4.38204 | 28948 ft | 391 kts | 223° |
| 2026-04-25 13:28 | 42.71468 | 4.36588 | 28767 ft | 390 kts | 223° |
| 2026-04-25 13:28 | 42.68743 | 4.33341 | 28403 ft | 388 kts | 223° |
| 2026-04-25 13:28 | 42.66744 | 4.30961 | 28147 ft | 386 kts | 223° |
| 2026-04-25 13:29 | 42.64726 | 4.28559 | 27880 ft | 385 kts | 223° |
| 2026-04-25 13:29 | 42.62716 | 4.26169 | 27615 ft | 383 kts | 223° |
| 2026-04-25 13:29 | 42.60711 | 4.23789 | 27358 ft | 382 kts | 223° |
| 2026-04-25 13:30 | 42.56729 | 4.19056 | 26842 ft | 379 kts | 223° |
| 2026-04-25 13:30 | 42.54753 | 4.16705 | 26590 ft | 377 kts | 223° |
| 2026-04-25 13:30 | 42.52783 | 4.14367 | 26340 ft | 376 kts | 223° |
| 2026-04-25 13:31 | 42.48843 | 4.09704 | 25845 ft | 375 kts | 222° |
| 2026-04-25 13:31 | 42.46879 | 4.07388 | 25602 ft | 374 kts | 223° |
| 2026-04-25 13:31 | 42.44923 | 4.05088 | 25363 ft | 372 kts | 223° |
| 2026-04-25 13:31 | 42.42971 | 4.02792 | 25127 ft | 371 kts | 223° |
| 2026-04-25 13:32 | 42.41026 | 4.00502 | 24883 ft | 369 kts | 223° |
| 2026-04-25 13:32 | 42.39095 | 3.98221 | 24648 ft | 368 kts | 223° |
| 2026-04-25 13:32 | 42.37169 | 3.95950 | 24412 ft | 366 kts | 222° |
| 2026-04-25 13:32 | 42.35249 | 3.93694 | 24179 ft | 365 kts | 223° |
| 2026-04-25 13:33 | 42.33333 | 3.91448 | 23954 ft | 365 kts | 223° |
| 2026-04-25 13:33 | 42.31416 | 3.89199 | 23725 ft | 365 kts | 222° |
| 2026-04-25 13:33 | 42.29498 | 3.86950 | 23451 ft | 365 kts | 222° |
| 2026-04-25 13:33 | 42.28231 | 3.85463 | 23280 ft | 365 kts | 223° |
| 2026-04-25 13:34 | 42.25673 | 3.82461 | 22917 ft | 363 kts | 222° |
| 2026-04-25 13:34 | 42.23774 | 3.80232 | 22649 ft | 361 kts | 223° |
| 2026-04-25 13:34 | 42.21886 | 3.78017 | 22380 ft | 359 kts | 222° |
| 2026-04-25 13:34 | 42.20009 | 3.75820 | 22118 ft | 354 kts | 221° |
| 2026-04-25 13:35 | 42.18155 | 3.73659 | 21864 ft | 357 kts | 221° |
| 2026-04-25 13:35 | 42.16233 | 3.71419 | 21615 ft | 383 kts | 221° |
| 2026-04-25 13:35 | 42.14116 | 3.68951 | 21355 ft | 410 kts | 221° |
| 2026-04-25 13:35 | 42.11929 | 3.66402 | 21105 ft | 433 kts | 221° |
| 2026-04-25 13:36 | 42.09598 | 3.63692 | 20856 ft | 452 kts | 221° |
| 2026-04-25 13:36 | 42.07283 | 3.60713 | 20606 ft | 469 kts | 226° |
| 2026-04-25 13:36 | 42.04974 | 3.57516 | 20419 ft | 482 kts | 226° |
| 2026-04-25 13:36 | 42.02662 | 3.54288 | 20609 ft | 472 kts | 226° |
| 2026-04-25 13:37 | 42.00439 | 3.51174 | 20360 ft | 452 kts | 226° |
| 2026-04-25 13:37 | 41.98307 | 3.48186 | 20113 ft | 434 kts | 226° |
| 2026-04-25 13:37 | 41.96247 | 3.45305 | 19882 ft | 421 kts | 226° |
| 2026-04-25 13:37 | 41.94248 | 3.42512 | 19639 ft | 410 kts | 226° |
| 2026-04-25 13:38 | 41.92286 | 3.39779 | 19404 ft | 401 kts | 226° |
| 2026-04-25 13:38 | 41.90374 | 3.37123 | 19165 ft | 391 kts | 226° |
| 2026-04-25 13:38 | 41.88507 | 3.34533 | 18928 ft | 381 kts | 226° |
| 2026-04-25 13:38 | 41.86685 | 3.32008 | 18699 ft | 372 kts | 226° |
| 2026-04-25 13:39 | 41.84902 | 3.29542 | 18465 ft | 364 kts | 225° |
| 2026-04-25 13:39 | 41.83156 | 3.27128 | 18204 ft | 356 kts | 225° |
| 2026-04-25 13:39 | 41.81449 | 3.24766 | 17936 ft | 349 kts | 226° |
| 2026-04-25 13:39 | 41.79773 | 3.22448 | 17687 ft | 343 kts | 226° |
| 2026-04-25 13:40 | 41.78118 | 3.20165 | 17420 ft | 341 kts | 226° |
| 2026-04-25 13:40 | 41.76470 | 3.17896 | 17156 ft | 339 kts | 226° |
| 2026-04-25 13:40 | 41.74825 | 3.15634 | 16902 ft | 338 kts | 226° |
| 2026-04-25 13:40 | 41.73188 | 3.13382 | 16652 ft | 337 kts | 226° |
| 2026-04-25 13:41 | 41.71557 | 3.11136 | 16403 ft | 336 kts | 226° |
| 2026-04-25 13:41 | 41.69933 | 3.08900 | 16153 ft | 335 kts | 226° |
| 2026-04-25 13:41 | 41.68312 | 3.06669 | 15911 ft | 334 kts | 226° |
| 2026-04-25 13:41 | 41.66699 | 3.04460 | 16044 ft | 332 kts | 225° |
| 2026-04-25 13:42 | 41.64902 | 3.02518 | 16108 ft | 334 kts | 212° |
| 2026-04-25 13:42 | 41.62835 | 3.01048 | 15572 ft | 340 kts | 205° |
| 2026-04-25 13:42 | 41.60707 | 2.99727 | 15278 ft | 334 kts | 204° |
| 2026-04-25 13:42 | 41.58594 | 2.98436 | 14901 ft | 333 kts | 204° |
| 2026-04-25 13:43 | 41.56488 | 2.97154 | 14533 ft | 332 kts | 205° |
| 2026-04-25 13:43 | 41.54396 | 2.95878 | 14232 ft | 329 kts | 205° |
| 2026-04-25 13:43 | 41.52324 | 2.94607 | 13906 ft | 327 kts | 205° |
| 2026-04-25 13:43 | 41.50262 | 2.93335 | 13499 ft | 326 kts | 205° |
| 2026-04-25 13:44 | 41.48208 | 2.92064 | 13125 ft | 325 kts | 205° |
| 2026-04-25 13:44 | 41.46166 | 2.90801 | 12765 ft | 323 kts | 205° |
| 2026-04-25 13:44 | 41.44135 | 2.89550 | 12411 ft | 321 kts | 205° |
| 2026-04-25 13:44 | 41.42123 | 2.88287 | 12059 ft | 319 kts | 209° |
| 2026-04-25 13:45 | 41.40391 | 2.86496 | 11718 ft | 315 kts | 230° |
| 2026-04-25 13:45 | 41.39250 | 2.84043 | 11370 ft | 311 kts | 251° |
| 2026-04-25 13:45 | 41.38843 | 2.81259 | 11021 ft | 306 kts | 270° |
| 2026-04-25 13:45 | 41.38805 | 2.78436 | 10657 ft | 305 kts | 271° |
| 2026-04-25 13:46 | 41.38773 | 2.75619 | 10322 ft | 303 kts | 271° |
| 2026-04-25 13:46 | 41.38740 | 2.72816 | 9992 ft | 302 kts | 271° |
| 2026-04-25 13:46 | 41.38702 | 2.70031 | 9630 ft | 300 kts | 271° |
| 2026-04-25 13:46 | 41.38663 | 2.67254 | 9268 ft | 299 kts | 270° |
| 2026-04-25 13:47 | 41.38623 | 2.64485 | 8893 ft | 298 kts | 270° |
| 2026-04-25 13:47 | 41.38584 | 2.61730 | 8538 ft | 297 kts | 270° |
| 2026-04-25 13:47 | 41.38543 | 2.59019 | 8196 ft | 296 kts | 270° |
| 2026-04-25 13:47 | 41.38501 | 2.56248 | 7856 ft | 295 kts | 270° |
| 2026-04-25 13:48 | 41.38459 | 2.53565 | 7528 ft | 293 kts | 270° |
| 2026-04-25 13:48 | 41.38415 | 2.50856 | 7201 ft | 292 kts | 270° |
| 2026-04-25 13:48 | 41.38370 | 2.48158 | 6864 ft | 291 kts | 270° |
| 2026-04-25 13:48 | 41.38327 | 2.45406 | 6113 ft | 305 kts | 270° |
| 2026-04-25 13:49 | 41.38283 | 2.42521 | 5294 ft | 319 kts | 270° |
| 2026-04-25 13:49 | 41.38235 | 2.39514 | 4433 ft | 331 kts | 270° |
| 2026-04-25 13:49 | 41.38183 | 2.36415 | 3775 ft | 335 kts | 270° |
| 2026-04-25 13:49 | 41.38082 | 2.33375 | 3597 ft | 323 kts | 263° |
| 2026-04-25 13:50 | 41.37453 | 2.30545 | 3261 ft | 318 kts | 246° |
| 2026-04-25 13:50 | 41.36543 | 2.27869 | 2831 ft | 315 kts | 245° |
| 2026-04-25 13:50 | 41.35636 | 2.25233 | 2417 ft | 311 kts | 245° |
| 2026-04-25 13:50 | 41.34748 | 2.22626 | 2007 ft | 307 kts | 244° |
| 2026-04-25 13:51 | 41.33872 | 2.20047 | 1599 ft | 304 kts | 244° |
| 2026-04-25 13:51 | 41.33003 | 2.17495 | 1196 ft | 301 kts | 245° |
| 2026-04-25 13:51 | 41.32142 | 2.14971 | 805 ft | 298 kts | 245° |
| 2026-04-25 13:51 | 41.31289 | 2.12504 | 559 ft | 290 kts | 244° |